Time;durP1;ratioP1;P1;durP2;ratioP2;P2;SDS_P1;SDS_P2;PMS_P1;PMS_P2;Temp;Humidity;BMP_temperature;BMP_pressure;BME280_temperature;BME280_humidity;BME280_pressure;Samples;Min_cycle;Max_cycle;Signal;HPM_P1;HPM_P2
2021/12/18 00:01:18;;;;;;;51.42;32.63;;;2.20;99.90;;;;;;5092264;28;20058;-79
2021/12/18 00:03:45;;;;;;;41.33;30.13;;;2.30;99.90;;;;;;5092037;28;20571;-79
2021/12/18 00:06:11;;;;;;;44.63;31.02;;;2.20;99.90;;;;;;5092259;28;20040;-79
2021/12/18 00:08:38;;;;;;;45.78;31.70;;;2.20;99.90;;;;;;5092203;28;20059;-78
2021/12/18 00:11:05;;;;;;;49.22;32.72;;;2.20;99.90;;;;;;5092328;28;20511;-79
2021/12/18 00:13:30;;;;;;;44.95;31.48;;;2.20;99.90;;;;;;5092252;28;20097;-78
2021/12/18 00:15:56;;;;;;;45.10;32.25;;;2.20;99.90;;;;;;5092146;28;20170;-78
2021/12/18 00:18:22;;;;;;;47.88;31.20;;;2.20;99.90;;;;;;5092199;28;20043;-78
2021/12/18 00:20:48;;;;;;;46.90;32.08;;;2.20;99.90;;;;;;5091094;28;20120;-78
2021/12/18 00:23:14;;;;;;;45.90;31.33;;;2.20;99.90;;;;;;5091082;28;20043;-78
2021/12/18 00:25:41;;;;;;;42.75;30.52;;;2.20;99.90;;;;;;5092040;28;20193;-78
2021/12/18 00:28:07;;;;;;;46.53;32.00;;;2.10;99.90;;;;;;5091975;28;20043;-78
2021/12/18 00:30:34;;;;;;;42.97;29.15;;;2.10;99.90;;;;;;5091022;28;20036;-77
2021/12/18 00:33:01;;;;;;;44.63;32.13;;;2.10;99.90;;;;;;5091941;28;20536;-77
2021/12/18 00:35:27;;;;;;;45.80;30.50;;;2.00;99.90;;;;;;5092166;28;20058;-78
2021/12/18 00:37:53;;;;;;;47.65;32.30;;;2.00;99.90;;;;;;5091350;28;20137;-77
2021/12/18 00:40:24;;;;;;;47.95;31.90;;;2.10;99.90;;;;;;5091980;28;20043;-77
2021/12/18 00:42:58;;;;;;;46.60;30.83;;;2.20;99.90;;;;;;5092000;28;20043;-77
2021/12/18 00:45:25;;;;;;;42.60;29.45;;;2.10;99.90;;;;;;5089478;28;20044;-77
2021/12/18 00:47:51;;;;;;;47.80;30.73;;;2.00;99.90;;;;;;5091992;28;20094;-77
2021/12/18 00:50:21;;;;;;;46.85;31.10;;;2.10;99.90;;;;;;5091882;28;20051;-77
2021/12/18 00:52:47;;;;;;;42.72;29.70;;;2.00;99.90;;;;;;5091709;28;20048;-77
2021/12/18 00:55:17;;;;;;;40.30;28.38;;;2.10;99.90;;;;;;5089989;28;20553;-77
2021/12/18 00:57:45;;;;;;;43.47;30.88;;;2.10;99.90;;;;;;5088844;28;20123;-77
2021/12/18 01:00:13;;;;;;;45.53;30.20;;;2.10;99.90;;;;;;5091537;28;20506;-77
2021/12/18 01:02:43;;;;;;;48.72;31.98;;;2.10;99.90;;;;;;5091741;28;20028;-78
2021/12/18 01:05:10;;;;;;;50.67;31.85;;;2.10;99.90;;;;;;5091693;28;20044;-78
2021/12/18 01:07:36;;;;;;;48.42;31.10;;;2.10;99.90;;;;;;5091668;28;20036;-78
2021/12/18 01:10:16;;;;;;;47.15;31.30;;;2.10;99.90;;;;;;5091676;28;20044;-78
2021/12/18 01:12:44;;;;;;;47.28;30.65;;;2.10;99.90;;;;;;5091340;28;20043;-78
2021/12/18 01:23:22;;;;;;;49.38;31.27;;;2.00;99.90;;;;;;5089714;28;20120;-77
2021/12/18 01:25:53;;;;;;;52.90;31.80;;;2.10;99.90;;;;;;5091259;28;20044;-78
2021/12/18 01:28:19;;;;;;;49.40;32.28;;;2.10;99.90;;;;;;5090892;28;20040;-77
2021/12/18 01:30:45;;;;;;;55.08;33.45;;;2.10;99.90;;;;;;5089790;28;20050;-77
2021/12/18 01:33:14;;;;;;;56.80;31.88;;;2.10;99.90;;;;;;5091357;28;20054;-77
2021/12/18 01:35:42;;;;;;;51.80;30.48;;;2.20;99.90;;;;;;5091324;28;20781;-77
2021/12/18 01:38:09;;;;;;;50.15;31.23;;;2.20;99.90;;;;;;5091441;28;20039;-77
2021/12/18 01:40:35;;;;;;;51.10;31.70;;;2.10;99.90;;;;;;5091402;28;20044;-78
2021/12/18 01:51:21;;;;;;;48.15;30.15;;;2.10;99.90;;;;;;5094224;28;20051;-77
2021/12/18 01:53:53;;;;;;;46.63;30.13;;;2.20;99.90;;;;;;5093051;28;20506;-77
2021/12/18 01:56:19;;;;;;;49.17;31.08;;;2.20;99.90;;;;;;5096137;28;20028;-77
2021/12/18 01:58:45;;;;;;;49.20;30.73;;;2.20;99.90;;;;;;5096218;28;20502;-79
2021/12/18 02:01:13;;;;;;;47.42;29.52;;;2.10;99.90;;;;;;5094915;28;20844;-79
2021/12/18 02:03:39;;;;;;;50.42;30.70;;;2.10;99.90;;;;;;5094736;28;20067;-78
2021/12/18 02:06:05;;;;;;;43.88;28.00;;;2.20;99.90;;;;;;5094766;28;20036;-78
2021/12/18 02:08:33;;;;;;;44.63;29.20;;;2.20;99.90;;;;;;5094875;28;20035;-78
2021/12/18 02:21:33;;;;;;;42.97;27.90;;;2.10;99.90;;;;;;5095863;28;20124;-78
2021/12/18 02:24:00;;;;;;;41.13;27.50;;;2.10;99.90;;;;;;5095348;28;20165;-78
2021/12/18 02:26:26;;;;;;;43.85;27.80;;;2.00;99.90;;;;;;5095315;28;20546;-78
2021/12/18 02:28:55;;;;;;;43.72;27.42;;;2.00;99.90;;;;;;5095366;28;20032;-78
2021/12/18 02:31:21;;;;;;;41.22;26.23;;;2.00;99.90;;;;;;5095640;28;20035;-78
2021/12/18 02:33:47;;;;;;;37.97;25.60;;;2.00;99.90;;;;;;5095355;28;20392;-78
2021/12/18 02:36:22;;;;;;;39.22;26.23;;;2.00;99.90;;;;;;5095582;28;20038;-78
2021/12/18 02:41:39;;;;;;;47.80;28.77;;;2.00;99.90;;;;;;5095713;28;20059;-78
2021/12/18 02:44:09;;;;;;;44.58;28.63;;;2.10;99.90;;;;;;5095446;28;20035;-78
2021/12/18 02:46:36;;;;;;;41.95;27.00;;;2.20;99.90;;;;;;5095388;28;20039;-78
2021/12/18 02:49:10;;;;;;;45.83;28.60;;;2.10;99.90;;;;;;5095251;28;20491;-78
2021/12/18 02:51:37;;;;;;;48.88;30.95;;;2.10;99.90;;;;;;5095276;28;20134;-78
2021/12/18 02:54:03;;;;;;;51.72;31.13;;;2.20;99.90;;;;;;5095181;28;20047;-78
2021/12/18 02:56:29;;;;;;;47.92;30.55;;;2.20;99.90;;;;;;5095164;28;20039;-78
2021/12/18 02:59:06;;;;;;;48.20;30.70;;;2.30;99.90;;;;;;5094893;28;20032;-78
2021/12/18 03:01:34;;;;;;;47.88;30.85;;;2.20;99.90;;;;;;5094071;28;20044;-78
2021/12/18 03:04:03;;;;;;;48.05;29.67;;;2.20;99.90;;;;;;5094661;28;20119;-78
2021/12/18 03:06:37;;;;;;;47.70;29.73;;;2.20;99.90;;;;;;5094915;28;20059;-78
2021/12/18 03:25:26;;;;;;;52.60;31.85;;;2.30;99.90;;;;;;5094490;28;20497;-78
2021/12/18 03:27:53;;;;;;;59.88;33.08;;;2.30;99.90;;;;;;5094282;28;20119;-78
2021/12/18 03:30:19;;;;;;;52.28;30.60;;;2.20;99.90;;;;;;5094513;28;20075;-78
2021/12/18 03:32:45;;;;;;;53.65;31.80;;;2.20;99.90;;;;;;5076290;28;20085;-78
2021/12/18 03:35:13;;;;;;;57.63;32.63;;;2.20;99.90;;;;;;5094405;28;20051;-78
2021/12/18 03:37:39;;;;;;;67.85;34.10;;;2.20;99.90;;;;;;5094244;28;20490;-78
2021/12/18 03:40:09;;;;;;;69.57;35.17;;;2.30;99.90;;;;;;5094190;28;20085;-78
2021/12/18 03:42:34;;;;;;;55.72;30.77;;;2.20;99.90;;;;;;5093937;28;20042;-78
2021/12/18 03:45:00;;;;;;;76.85;32.13;;;2.20;99.90;;;;;;5094027;28;20044;-78
2021/12/18 03:47:26;;;;;;;57.88;31.65;;;2.20;99.90;;;;;;5094255;28;20032;-78
2021/12/18 03:49:52;;;;;;;52.15;28.15;;;2.10;99.90;;;;;;5094112;28;20035;-79
2021/12/18 03:52:18;;;;;;;51.88;26.67;;;2.10;99.90;;;;;;5093924;28;20055;-78
2021/12/18 03:54:43;;;;;;;50.80;25.08;;;1.90;99.90;;;;;;5093781;28;20054;-79
2021/12/18 03:57:09;;;;;;;55.50;25.33;;;1.90;99.90;;;;;;5093631;28;20032;-78
2021/12/18 03:59:35;;;;;;;50.22;26.13;;;1.90;99.90;;;;;;5093838;28;20445;-78
2021/12/18 04:02:01;;;;;;;139.35;29.33;;;2.00;99.90;;;;;;5093548;28;20551;-78
2021/12/18 04:04:27;;;;;;;396.58;44.47;;;2.10;99.90;;;;;;5093561;28;20058;-78
2021/12/18 04:06:53;;;;;;;110.63;29.92;;;2.10;99.90;;;;;;5093866;28;20088;-78
2021/12/18 04:09:18;;;;;;;101.97;27.80;;;2.10;99.90;;;;;;5093862;28;20395;-78
2021/12/18 04:11:44;;;;;;;47.75;25.05;;;2.10;99.90;;;;;;5093627;28;20043;-78
2021/12/18 04:14:12;;;;;;;64.60;25.48;;;2.10;99.90;;;;;;5093352;28;20066;-78
2021/12/18 04:16:38;;;;;;;86.75;27.90;;;2.10;99.90;;;;;;5093651;28;20036;-78
2021/12/18 04:19:04;;;;;;;140.90;30.48;;;2.20;99.90;;;;;;5093672;28;20114;-78
2021/12/18 04:21:31;;;;;;;108.93;30.23;;;2.20;99.90;;;;;;5093666;28;20047;-78
2021/12/18 04:23:57;;;;;;;55.15;27.00;;;2.20;99.90;;;;;;5093596;28;20050;-78
2021/12/18 04:26:23;;;;;;;61.25;25.85;;;2.30;99.90;;;;;;5093275;28;20132;-78
2021/12/18 04:28:49;;;;;;;55.83;26.23;;;2.20;99.90;;;;;;5093413;28;20123;-78
2021/12/18 04:31:15;;;;;;;57.40;25.58;;;2.30;99.90;;;;;;5093324;28;20040;-78
2021/12/18 04:33:41;;;;;;;51.63;25.55;;;2.20;99.90;;;;;;5092720;28;20048;-78
2021/12/18 04:36:07;;;;;;;59.30;27.33;;;2.20;99.90;;;;;;5093331;28;20380;-78
2021/12/18 04:38:33;;;;;;;49.22;24.77;;;2.10;99.90;;;;;;5093681;28;20060;-78
2021/12/18 04:40:59;;;;;;;45.47;23.98;;;2.10;99.90;;;;;;5093220;28;20028;-78
2021/12/18 04:43:25;;;;;;;49.55;25.55;;;2.10;99.90;;;;;;5092731;28;20517;-78
2021/12/18 04:45:51;;;;;;;52.08;23.15;;;2.10;99.90;;;;;;5093150;28;20067;-78
2021/12/18 04:48:17;;;;;;;43.65;23.10;;;2.10;99.90;;;;;;5093249;28;20048;-77
2021/12/18 04:50:43;;;;;;;66.85;22.70;;;2.10;99.90;;;;;;5076005;28;20469;-78
2021/12/18 04:53:10;;;;;;;63.22;21.95;;;2.10;99.90;;;;;;5072385;28;20105;-78
2021/12/18 04:55:36;;;;;;;42.40;21.83;;;2.10;99.90;;;;;;5072110;28;20484;-78
2021/12/18 04:58:02;;;;;;;48.38;21.05;;;2.20;99.90;;;;;;5072092;28;20470;-78
2021/12/18 05:00:37;;;;;;;65.15;21.70;;;2.10;99.90;;;;;;5072782;28;20094;-79
2021/12/18 05:03:06;;;;;;;44.25;20.70;;;2.10;99.90;;;;;;5072847;28;20041;-78
2021/12/18 05:05:33;;;;;;;43.25;21.48;;;2.10;99.90;;;;;;5072871;28;20044;-78
2021/12/18 05:08:00;;;;;;;61.53;23.80;;;2.10;99.90;;;;;;5072634;28;20082;-79
2021/12/18 05:10:25;;;;;;;40.33;20.48;;;2.10;99.90;;;;;;5072725;28;20037;-79
2021/12/18 05:12:51;;;;;;;35.28;20.02;;;2.10;99.90;;;;;;5072853;28;20036;-78
2021/12/18 05:15:17;;;;;;;83.07;22.15;;;2.20;99.90;;;;;;5072821;28;20814;-78
2021/12/18 05:17:43;;;;;;;41.80;20.67;;;2.20;99.90;;;;;;5072776;28;20391;-78
2021/12/18 05:20:09;;;;;;;173.63;25.45;;;2.20;99.90;;;;;;5072728;28;20039;-78
2021/12/18 05:22:35;;;;;;;31.95;17.80;;;2.10;99.90;;;;;;5072541;28;20071;-78
2021/12/18 05:25:00;;;;;;;161.77;25.20;;;2.10;99.90;;;;;;5081367;28;20431;-77
2021/12/18 05:27:29;;;;;;;31.60;18.33;;;2.10;99.90;;;;;;5083947;28;20054;-79
2021/12/18 05:29:55;;;;;;;39.65;18.45;;;1.80;99.90;;;;;;5075637;28;20110;-78
2021/12/18 05:32:21;;;;;;;34.33;19.15;;;1.90;99.90;;;;;;5076383;28;20475;-78
2021/12/18 05:34:46;;;;;;;34.22;17.60;;;1.90;99.90;;;;;;5076098;28;20051;-78
2021/12/18 05:39:38;;;;;;;32.08;18.33;;;2.00;99.90;;;;;;5076450;28;20028;-78
2021/12/18 05:42:04;;;;;;;37.10;19.13;;;1.90;99.90;;;;;;5076014;28;20446;-79
2021/12/18 05:44:30;;;;;;;32.00;18.38;;;1.80;99.90;;;;;;5075943;28;20036;-79
2021/12/18 05:46:56;;;;;;;39.33;18.95;;;1.70;99.90;;;;;;5075976;28;20040;-78
2021/12/18 05:49:22;;;;;;;34.15;19.38;;;1.70;99.90;;;;;;5076010;28;20032;-78
2021/12/18 05:51:48;;;;;;;36.83;18.45;;;1.70;99.90;;;;;;5076079;28;20040;-78
2021/12/18 05:54:15;;;;;;;31.63;17.98;;;1.80;99.90;;;;;;5076062;28;20140;-79
2021/12/18 05:56:41;;;;;;;81.88;20.35;;;1.60;99.90;;;;;;5076005;28;20522;-79
2021/12/18 05:59:08;;;;;;;96.30;20.42;;;1.50;99.90;;;;;;5074955;28;20039;-84
2021/12/18 06:01:34;;;;;;;115.82;22.38;;;1.50;99.90;;;;;;5074271;28;20574;-83
2021/12/18 06:04:00;;;;;;;46.75;23.98;;;1.50;99.90;;;;;;5075378;28;20039;-80
2021/12/18 06:06:28;;;;;;;46.78;22.58;;;1.50;99.90;;;;;;5074664;28;20045;-79
2021/12/18 06:08:54;;;;;;;61.85;20.88;;;1.60;99.90;;;;;;5075132;28;20182;-79
2021/12/18 06:11:22;;;;;;;50.03;18.60;;;1.50;99.90;;;;;;5075137;28;20149;-79
2021/12/18 06:13:50;;;;;;;41.75;20.85;;;1.50;99.90;;;;;;5075231;28;20097;-79
2021/12/18 06:16:16;;;;;;;193.80;26.77;;;1.50;99.90;;;;;;5057158;28;20102;-79
2021/12/18 06:18:44;;;;;;;283.63;32.83;;;1.70;99.90;;;;;;5075374;28;20403;-79
2021/12/18 06:21:13;;;;;;;43.75;21.95;;;1.70;99.90;;;;;;5057768;28;20040;-80
2021/12/18 06:23:39;;;;;;;43.17;23.00;;;1.60;99.90;;;;;;5057744;28;20048;-79
2021/12/18 06:26:06;;;;;;;48.15;23.27;;;1.70;99.90;;;;;;5075508;28;20044;-79
2021/12/18 06:28:31;;;;;;;42.55;21.25;;;1.80;99.90;;;;;;5075469;28;20093;-79
2021/12/18 06:30:58;;;;;;;40.13;21.02;;;1.70;99.90;;;;;;5075543;28;20040;-80
2021/12/18 06:33:23;;;;;;;41.22;23.77;;;1.50;99.90;;;;;;5075437;28;20052;-79
2021/12/18 06:35:49;;;;;;;46.63;25.92;;;1.50;99.90;;;;;;5074302;28;20457;-79
2021/12/18 06:38:15;;;;;;;37.20;22.30;;;1.50;99.90;;;;;;5075545;28;20451;-80
2021/12/18 06:40:41;;;;;;;42.40;25.13;;;1.50;99.90;;;;;;5075428;28;20044;-83
2021/12/18 06:43:08;;;;;;;41.40;23.80;;;1.60;99.90;;;;;;5075299;28;20521;-83
2021/12/18 06:45:34;;;;;;;44.83;24.10;;;1.60;99.90;;;;;;5075294;28;20028;-80
2021/12/18 06:48:01;;;;;;;43.78;23.67;;;1.60;99.90;;;;;;5087078;28;20040;-79
2021/12/18 06:50:27;;;;;;;45.35;24.85;;;1.70;99.90;;;;;;5095264;28;20043;-80
2021/12/18 06:52:53;;;;;;;39.80;23.77;;;1.70;99.90;;;;;;5095334;28;20032;-80
2021/12/18 06:55:19;;;;;;;48.30;24.33;;;1.70;99.90;;;;;;5094999;28;20039;-80
2021/12/18 06:57:46;;;;;;;41.92;24.02;;;1.70;99.90;;;;;;5095325;28;20105;-79
2021/12/18 07:00:14;;;;;;;41.65;22.98;;;1.80;99.90;;;;;;5095203;28;20437;-80
2021/12/18 07:02:41;;;;;;;42.28;23.77;;;1.80;99.90;;;;;;5095136;28;20040;-79
2021/12/18 07:05:09;;;;;;;49.35;24.10;;;1.80;99.90;;;;;;5095058;28;20085;-79
2021/12/18 07:07:35;;;;;;;42.47;23.20;;;1.90;99.90;;;;;;5095006;28;20046;-79
2021/12/18 07:10:02;;;;;;;48.72;23.90;;;1.80;99.90;;;;;;5094861;28;20574;-79
2021/12/18 07:12:27;;;;;;;49.33;23.40;;;1.70;99.90;;;;;;5094866;28;20046;-79
2021/12/18 07:14:53;;;;;;;42.95;23.27;;;1.80;99.90;;;;;;5094737;28;20045;-79
2021/12/18 07:17:19;;;;;;;47.53;24.40;;;1.70;99.90;;;;;;5094851;28;20074;-79
2021/12/18 07:19:45;;;;;;;47.28;24.73;;;1.70;99.90;;;;;;5094866;28;20592;-79
2021/12/18 07:22:10;;;;;;;49.67;27.00;;;1.70;99.90;;;;;;5094706;28;20491;-79
2021/12/18 07:24:36;;;;;;;54.88;26.77;;;1.80;99.90;;;;;;5094655;28;20047;-79
2021/12/18 07:27:02;;;;;;;43.58;25.42;;;1.80;99.90;;;;;;5094700;28;20519;-79
2021/12/18 07:29:28;;;;;;;46.03;25.88;;;1.80;99.90;;;;;;5094629;28;20036;-82
2021/12/18 07:31:54;;;;;;;35.85;21.45;;;1.80;99.90;;;;;;5094491;28;20452;-80
2021/12/18 07:34:19;;;;;;;39.40;22.42;;;1.60;99.90;;;;;;5094525;28;20476;-79
2021/12/18 07:36:45;;;;;;;40.60;23.75;;;1.70;99.90;;;;;;5094499;28;20048;-79
2021/12/18 07:39:11;;;;;;;43.78;23.80;;;1.80;99.90;;;;;;5094451;28;20491;-79
2021/12/18 07:41:37;;;;;;;38.80;22.88;;;1.70;99.90;;;;;;5094430;28;20398;-79
2021/12/18 07:44:06;;;;;;;42.97;22.63;;;1.60;99.90;;;;;;5094363;28;20731;-79
2021/12/18 07:46:35;;;;;;;41.03;23.58;;;1.60;99.90;;;;;;5093898;28;20039;-80
2021/12/18 07:49:02;;;;;;;44.83;23.20;;;1.50;99.90;;;;;;5093989;28;20220;-79
2021/12/18 07:51:28;;;;;;;41.60;22.48;;;1.50;99.90;;;;;;5094196;28;20169;-82
2021/12/18 07:53:53;;;;;;;40.53;22.33;;;1.60;99.90;;;;;;5094222;28;20127;-79
2021/12/18 07:56:19;;;;;;;41.70;22.92;;;1.70;99.90;;;;;;5094142;28;20111;-79
2021/12/18 07:58:46;;;;;;;41.88;22.27;;;1.70;99.90;;;;;;5094221;28;20035;-79
2021/12/18 08:01:12;;;;;;;46.35;29.70;;;1.60;99.90;;;;;;5094151;28;20040;-79
2021/12/18 08:03:38;;;;;;;46.97;24.63;;;1.50;99.90;;;;;;5094065;28;20158;-79
2021/12/18 08:06:04;;;;;;;41.92;22.83;;;1.50;99.90;;;;;;5094017;28;20085;-79
2021/12/18 08:08:30;;;;;;;46.03;28.25;;;1.50;99.90;;;;;;5093992;28;20028;-79
2021/12/18 08:10:55;;;;;;;42.55;24.58;;;1.60;99.90;;;;;;5093902;28;20407;-79
2021/12/18 08:13:21;;;;;;;43.08;24.10;;;1.60;99.90;;;;;;5093648;28;20560;-79
2021/12/18 08:15:47;;;;;;;42.33;21.55;;;1.60;99.90;;;;;;5093714;28;20043;-79
2021/12/18 08:18:13;;;;;;;40.90;21.00;;;1.70;99.90;;;;;;5093893;28;20064;-80
2021/12/18 08:20:39;;;;;;;34.72;20.20;;;1.70;99.90;;;;;;5094088;28;20079;-79
2021/12/18 08:23:06;;;;;;;41.28;22.00;;;1.80;99.90;;;;;;5093655;28;20390;-80
2021/12/18 08:25:32;;;;;;;39.15;23.48;;;1.90;99.90;;;;;;5093495;28;20040;-79
2021/12/18 08:28:00;;;;;;;37.08;22.15;;;1.80;99.90;;;;;;5093271;28;20032;-80
2021/12/18 08:30:30;;;;;;;50.85;28.50;;;1.70;99.90;;;;;;5093306;28;20104;-82
2021/12/18 08:33:00;;;;;;;78.05;62.67;;;1.60;99.90;;;;;;5092411;28;20166;-80
2021/12/18 08:35:28;;;;;;;35.22;18.65;;;1.60;99.90;;;;;;5085877;28;20043;-80
2021/12/18 08:37:55;;;;;;;33.28;17.85;;;1.60;99.90;;;;;;5072910;28;20063;-80
2021/12/18 08:40:22;;;;;;;31.42;16.20;;;1.60;99.90;;;;;;5072940;28;20459;-81
2021/12/18 08:42:48;;;;;;;32.03;16.75;;;1.50;99.90;;;;;;5055125;28;20040;-81
2021/12/18 08:45:14;;;;;;;42.10;24.33;;;1.60;99.90;;;;;;5073108;28;20100;-80
2021/12/18 08:47:41;;;;;;;83.40;49.60;;;1.80;99.90;;;;;;5072970;28;20029;-79
2021/12/18 08:50:10;;;;;;;178.65;95.95;;;1.80;99.90;;;;;;5072940;28;20033;-79
2021/12/18 08:52:36;;;;;;;88.45;56.80;;;1.80;99.90;;;;;;5072742;28;20068;-79
2021/12/18 08:55:03;;;;;;;46.95;26.38;;;1.80;99.90;;;;;;5089800;28;20417;-82
2021/12/18 08:57:29;;;;;;;36.58;19.73;;;1.60;99.90;;;;;;5090933;28;20067;-80
2021/12/18 08:59:54;;;;;;;36.00;18.50;;;1.60;99.90;;;;;;5092495;28;20082;-80
2021/12/18 09:02:20;;;;;;;42.30;24.05;;;1.60;99.90;;;;;;5093349;28;20059;-79
2021/12/18 09:04:48;;;;;;;34.13;19.30;;;1.60;99.90;;;;;;5093219;28;20085;-80
2021/12/18 09:07:14;;;;;;;35.38;17.08;;;1.60;99.90;;;;;;5093143;28;20050;-80
2021/12/18 09:09:40;;;;;;;30.10;16.45;;;1.50;99.90;;;;;;5083857;28;20036;-81
2021/12/18 09:12:07;;;;;;;33.13;19.15;;;1.50;99.90;;;;;;5093096;28;20050;-79
2021/12/18 09:14:33;;;;;;;37.45;20.23;;;1.50;99.90;;;;;;5093052;28;20058;-79
2021/12/18 09:16:59;;;;;;;33.15;19.05;;;1.70;99.90;;;;;;5092917;28;20036;-79
2021/12/18 09:19:25;;;;;;;30.48;18.50;;;1.70;99.90;;;;;;5092855;28;20152;-81
2021/12/18 09:21:50;;;;;;;31.73;17.52;;;1.80;99.90;;;;;;5092867;28;20043;-79
2021/12/18 09:24:16;;;;;;;31.65;19.00;;;1.80;99.90;;;;;;5092696;28;20412;-79
2021/12/18 09:26:42;;;;;;;28.00;17.30;;;1.70;99.90;;;;;;5093069;28;20558;-80
2021/12/18 09:29:08;;;;;;;43.00;26.13;;;1.70;99.90;;;;;;5092277;28;20040;-78
2021/12/18 09:31:34;;;;;;;24.92;15.40;;;1.50;99.90;;;;;;5084846;28;20040;-79
2021/12/18 09:34:00;;;;;;;23.52;15.52;;;1.40;99.90;;;;;;5070499;28;20090;-80
2021/12/18 09:36:26;;;;;;;29.98;16.75;;;1.50;99.90;;;;;;5070712;28;20040;-81
2021/12/18 09:38:52;;;;;;;52.63;31.02;;;1.60;99.90;;;;;;5072891;28;20403;-80
2021/12/18 09:41:18;;;;;;;32.45;20.00;;;1.50;99.90;;;;;;5072604;28;20518;-81
2021/12/18 09:43:43;;;;;;;26.80;16.55;;;1.70;99.90;;;;;;5072627;28;20037;-81
2021/12/18 09:46:12;;;;;;;28.20;17.63;;;1.70;99.90;;;;;;5072561;28;20041;-81
2021/12/18 09:48:40;;;;;;;26.90;17.80;;;1.70;99.90;;;;;;5072428;28;20094;-80
2021/12/18 09:51:12;;;;;;;27.00;16.27;;;1.90;99.90;;;;;;5072529;28;20067;-81
2021/12/18 09:53:39;;;;;;;26.58;16.55;;;1.60;99.90;;;;;;5072424;28;20040;-81
2021/12/18 09:56:06;;;;;;;26.02;16.10;;;1.60;99.90;;;;;;5072687;28;20053;-79
2021/12/18 09:58:33;;;;;;;27.58;16.45;;;1.80;99.90;;;;;;5072386;28;20453;-80
2021/12/18 10:00:59;;;;;;;43.67;26.35;;;1.70;99.90;;;;;;5072151;28;20028;-82
2021/12/18 10:03:54;;;;;;;31.98;16.27;;;2.00;99.90;;;;;;5072483;28;20032;-80
2021/12/18 10:06:36;;;;;;;25.55;16.40;;;3.00;99.90;;;;;;5072068;28;20032;-80
2021/12/18 10:09:09;;;;;;;26.30;17.00;;;2.90;99.90;;;;;;5071752;28;20093;-79
2021/12/18 10:11:46;;;;;;;30.45;20.13;;;2.40;99.90;;;;;;5075393;28;20044;-80
2021/12/18 10:14:13;;;;;;;39.90;24.58;;;2.20;99.90;;;;;;5074544;28;20048;-80
2021/12/18 10:16:57;;;;;;;49.38;29.20;;;2.10;99.90;;;;;;5075365;28;20098;-80
2021/12/18 10:19:31;;;;;;;26.10;18.25;;;2.00;99.90;;;;;;5075490;28;20071;-79
2021/12/18 10:22:04;;;;;;;26.20;17.75;;;2.80;99.90;;;;;;5075497;28;20597;-80
2021/12/18 10:24:31;;;;;;;27.42;17.48;;;1.70;99.90;;;;;;5075546;28;20094;-79
2021/12/18 10:26:57;;;;;;;26.67;16.70;;;1.80;99.90;;;;;;5075515;28;20538;-79
2021/12/18 10:29:28;;;;;;;27.70;17.85;;;1.80;99.90;;;;;;5075515;28;20055;-80
2021/12/18 10:31:54;;;;;;;26.50;17.08;;;1.80;99.90;;;;;;5075563;28;20036;-79
2021/12/18 10:34:25;;;;;;;25.05;17.13;;;1.80;99.90;;;;;;5074521;28;20055;-79
2021/12/18 10:37:26;;;;;;;28.60;18.88;;;1.80;99.90;;;;;;5075427;28;20037;-79
2021/12/18 10:39:55;;;;;;;26.48;17.20;;;1.90;99.90;;;;;;5075564;28;20068;-79
2021/12/18 10:42:36;;;;;;;25.98;17.45;;;1.80;99.90;;;;;;5075381;28;20071;-79
2021/12/18 10:45:07;;;;;;;28.10;19.25;;;1.70;99.90;;;;;;5075319;28;20046;-79
2021/12/18 10:47:51;;;;;;;39.20;28.35;;;1.80;99.90;;;;;;5075203;28;20048;-79
2021/12/18 10:50:24;;;;;;;40.75;27.38;;;1.80;99.90;;;;;;5077619;28;20032;-79
2021/12/18 10:52:58;;;;;;;31.75;21.48;;;1.80;99.90;;;;;;5083827;28;20533;-79
2021/12/18 10:55:57;;;;;;;31.80;20.77;;;1.80;99.90;;;;;;5087777;28;20138;-78
2021/12/18 10:58:27;;;;;;;31.00;19.92;;;1.90;99.90;;;;;;5089940;28;20445;-78
2021/12/18 11:00:52;;;;;;;29.85;19.35;;;1.80;99.90;;;;;;5095526;28;20046;-78
2021/12/18 11:03:28;;;;;;;35.05;21.63;;;1.70;99.90;;;;;;5083021;28;20123;-78
2021/12/18 11:06:16;;;;;;;31.70;20.58;;;1.90;99.90;;;;;;5094924;28;20036;-78
2021/12/18 11:09:09;;;;;;;36.20;23.85;;;2.00;99.90;;;;;;5095158;28;20054;-79
2021/12/18 11:14:15;;;;;;;35.90;23.30;;;2.00;99.90;;;;;;5101845;28;20043;-80
2021/12/18 11:16:44;;;;;;;35.95;22.58;;;2.00;99.90;;;;;;5110024;28;20111;-80
2021/12/18 11:19:13;;;;;;;34.13;22.48;;;1.90;99.90;;;;;;5094827;28;20082;-80
2021/12/18 11:21:54;;;;;;;32.47;20.52;;;1.80;99.90;;;;;;5102594;28;20036;-80
2021/12/18 11:24:22;;;;;;;33.97;20.55;;;1.80;99.90;;;;;;5091673;28;20491;-79
2021/12/18 11:26:57;;;;;;;32.88;21.42;;;1.90;99.90;;;;;;5112942;28;20043;-80
2021/12/18 11:29:33;;;;;;;35.05;20.70;;;2.00;99.90;;;;;;5094410;28;20043;-80
2021/12/18 11:32:00;;;;;;;33.05;21.13;;;2.10;99.90;;;;;;5076386;28;20418;-80
2021/12/18 11:34:27;;;;;;;30.40;20.48;;;2.10;99.90;;;;;;5094435;28;20073;-80
2021/12/18 11:36:53;;;;;;;32.33;20.23;;;2.10;99.90;;;;;;5094382;28;20031;-80
2021/12/18 11:39:24;;;;;;;30.92;20.35;;;2.10;99.90;;;;;;5093676;28;20134;-80
2021/12/18 11:41:52;;;;;;;33.28;19.92;;;2.10;99.90;;;;;;5094339;28;20080;-80
2021/12/18 11:44:37;;;;;;;31.80;19.58;;;2.10;99.90;;;;;;5094280;28;20050;-80
2021/12/18 11:47:22;;;;;;;33.00;20.88;;;2.20;99.90;;;;;;5094356;28;20093;-79
2021/12/18 11:49:47;;;;;;;49.45;25.63;;;2.10;99.90;;;;;;5112485;28;20438;-79
2021/12/18 11:52:13;;;;;;;44.25;24.67;;;2.00;99.90;;;;;;5114453;28;20031;-79
2021/12/18 11:54:43;;;;;;;43.90;25.42;;;1.80;99.90;;;;;;5114509;28;20560;-80
2021/12/18 11:57:08;;;;;;;41.90;26.00;;;1.80;99.90;;;;;;5114572;28;20118;-79
2021/12/18 11:59:44;;;;;;;35.97;23.58;;;1.80;99.90;;;;;;5094483;28;20078;-80
2021/12/18 12:02:12;;;;;;;47.78;25.98;;;1.90;99.90;;;;;;5093913;28;20077;-80
2021/12/18 12:04:59;;;;;;;46.15;26.42;;;2.00;99.90;;;;;;5093853;28;20036;-80
2021/12/18 12:07:26;;;;;;;38.38;25.08;;;2.00;99.90;;;;;;5093795;28;20044;-80
2021/12/18 12:10:22;;;;;;;47.40;28.35;;;2.00;99.90;;;;;;5093631;28;20044;-80
2021/12/18 12:12:54;;;;;;;44.35;27.02;;;2.10;99.90;;;;;;5105399;28;20617;-79
2021/12/18 12:15:25;;;;;;;43.42;26.17;;;2.10;99.90;;;;;;5114170;28;20054;-79
2021/12/18 12:17:54;;;;;;;;;;;2.10;99.90;;;;;;5114406;28;20027;-79
2021/12/18 12:20:37;;;;;;;49.67;26.95;;;1.90;99.90;;;;;;5113924;28;19907;-79
2021/12/18 12:23:03;;;;;;;44.88;28.00;;;1.70;99.90;;;;;;5113885;28;20043;-79
2021/12/18 12:25:41;;;;;;;47.05;28.42;;;1.70;99.90;;;;;;5113749;28;20047;-79
2021/12/18 12:28:19;;;;;;;48.88;28.58;;;1.70;99.90;;;;;;5113943;28;20071;-78
2021/12/18 12:30:52;;;;;;;41.45;25.60;;;1.60;99.90;;;;;;5095529;28;20080;-79
2021/12/18 12:33:24;;;;;;;42.65;25.90;;;1.50;99.90;;;;;;5112586;28;20452;-78
2021/12/18 12:35:59;;;;;;;43.05;25.27;;;1.50;99.90;;;;;;5113437;28;20047;-79
2021/12/18 12:38:49;;;;;;;51.97;27.33;;;1.40;99.90;;;;;;5113620;28;20038;-79
2021/12/18 12:41:27;;;;;;;44.35;26.65;;;1.50;99.90;;;;;;5102445;28;20049;-79
2021/12/18 12:43:58;;;;;;;41.00;26.50;;;1.50;99.90;;;;;;5108399;28;20470;-80
2021/12/18 12:46:25;;;;;;;;;;;1.50;99.90;;;;;;5113830;28;20024;-79
2021/12/18 12:49:16;;;;;;;75.70;45.55;;;1.60;99.90;;;;;;5113696;28;19908;-80
2021/12/18 12:51:57;;;;;;;52.13;33.92;;;1.60;99.90;;;;;;5110739;28;20088;-79
2021/12/18 12:54:54;;;;;;;49.55;29.33;;;1.70;99.90;;;;;;5092999;28;20051;-79
2021/12/18 12:57:22;;;;;;;47.65;29.73;;;1.70;99.90;;;;;;5083012;28;20039;-80
2021/12/18 12:59:52;;;;;;;45.35;27.65;;;1.60;99.90;;;;;;5103762;28;20043;-80
2021/12/18 13:02:18;;;;;;;62.50;33.85;;;1.60;99.90;;;;;;5102655;28;20051;-79
2021/12/18 13:04:44;;;;;;;62.22;32.85;;;1.50;99.90;;;;;;5081360;28;20093;-79
2021/12/18 13:07:10;;;;;;;46.88;29.02;;;1.60;99.90;;;;;;5102216;28;20038;-79
2021/12/18 13:09:45;;;;;;;52.90;30.45;;;1.60;99.90;;;;;;5096956;28;20038;-79
2021/12/18 13:12:11;;;;;;;62.30;32.00;;;1.60;99.90;;;;;;5077683;28;20402;-80
2021/12/18 13:14:42;;;;;;;53.88;30.85;;;1.50;99.90;;;;;;5092829;28;20559;-79
2021/12/18 13:17:30;;;;;;;55.42;32.03;;;1.60;99.90;;;;;;5087552;28;20035;-77
2021/12/18 13:20:02;;;;;;;59.33;33.17;;;1.60;99.90;;;;;;5110087;28;20043;-76
2021/12/18 13:22:32;;;;;;;46.92;29.42;;;1.50;99.90;;;;;;5092690;28;20093;-76
2021/12/18 13:25:09;;;;;;;60.55;33.33;;;1.60;99.90;;;;;;5112051;28;20036;-75
2021/12/18 13:27:37;;;;;;;58.58;34.05;;;1.60;99.90;;;;;;5111415;28;20051;-77
2021/12/18 13:30:18;;;;;;;71.82;46.22;;;1.70;99.90;;;;;;5074972;28;20044;-76
2021/12/18 13:33:03;;;;;;;93.32;51.97;;;1.60;99.90;;;;;;5070206;28;20040;-76
2021/12/18 13:35:30;;;;;;;69.38;40.40;;;1.70;99.90;;;;;;5080682;28;20145;-76
2021/12/18 13:38:01;;;;;;;141.43;78.45;;;1.60;99.90;;;;;;5074966;28;20021;-77